createdAt,value
2018-06-20T00:01:04.142Z,14.96
2018-06-20T00:02:12.208Z,14.96
2018-06-20T00:03:20.260Z,14.87
2018-06-20T00:04:28.346Z,14.90
2018-06-20T00:05:36.359Z,14.86
2018-06-20T00:06:44.458Z,14.85
2018-06-20T00:07:52.557Z,14.87
2018-06-20T00:09:00.623Z,14.87
2018-06-20T00:10:08.695Z,14.79
2018-06-20T00:11:16.699Z,14.89
2018-06-20T00:12:24.835Z,14.73
2018-06-20T00:13:32.869Z,14.87
2018-06-20T00:14:40.927Z,14.86
2018-06-20T00:15:49.006Z,14.81
2018-06-20T00:16:57.059Z,14.81
2018-06-20T00:18:05.141Z,14.86
2018-06-20T00:19:13.216Z,14.78
2018-06-20T00:20:21.268Z,14.81
2018-06-20T00:21:29.334Z,14.85
2018-06-20T00:22:37.398Z,14.79
2018-06-20T00:23:45.444Z,14.92
2018-06-20T00:24:53.515Z,14.85
2018-06-20T00:26:01.598Z,14.90
2018-06-20T00:27:09.656Z,14.82
2018-06-20T00:28:17.722Z,14.73
2018-06-20T00:29:25.782Z,14.86
2018-06-20T00:30:33.859Z,14.78
2018-06-20T00:31:41.927Z,14.79
2018-06-20T00:32:49.992Z,14.85
2018-06-20T00:33:58.059Z,14.86
2018-06-20T00:35:06.091Z,14.86
2018-06-20T00:36:14.187Z,14.79
2018-06-20T00:37:22.266Z,14.82
2018-06-20T00:38:30.321Z,14.89
2018-06-20T00:39:38.388Z,14.82
2018-06-20T00:40:46.418Z,14.89
2018-06-20T00:41:54.509Z,14.81
2018-06-20T00:43:02.580Z,14.85
2018-06-20T00:44:10.651Z,14.85
2018-06-20T00:45:18.687Z,14.86
2018-06-20T00:46:26.784Z,14.87
2018-06-20T00:47:34.847Z,14.81
2018-06-20T00:48:42.940Z,14.92
2018-06-20T00:49:50.979Z,14.81
2018-06-20T00:50:59.054Z,14.94
2018-06-20T00:52:07.095Z,14.92
2018-06-20T00:53:15.154Z,14.89
2018-06-20T00:54:23.233Z,14.82
2018-06-20T00:55:31.315Z,14.85
2018-06-20T00:56:39.366Z,14.93
2018-06-20T00:57:47.428Z,14.96
2018-06-20T00:58:55.497Z,14.97
2018-06-20T01:00:03.554Z,14.96
2018-06-20T01:01:11.620Z,14.89
2018-06-20T01:02:19.732Z,14.93
2018-06-20T01:03:27.768Z,14.99
2018-06-20T01:04:35.848Z,14.96
2018-06-20T01:05:43.901Z,14.97
2018-06-20T01:06:51.972Z,14.93
2018-06-20T01:08:00.036Z,15.00
2018-06-20T01:09:08.108Z,14.99
2018-06-20T01:10:16.141Z,14.97
2018-06-20T01:11:24.212Z,14.97
2018-06-20T01:12:32.284Z,15.11
2018-06-20T01:13:40.364Z,15.15
2018-06-20T01:14:48.424Z,15.10
2018-06-20T01:15:56.483Z,15.11
2018-06-20T01:17:04.561Z,15.10
2018-06-20T01:18:12.629Z,15.11
2018-06-20T01:19:20.680Z,15.12
2018-06-20T01:20:28.755Z,15.11
2018-06-20T01:21:36.799Z,15.10
2018-06-20T01:22:44.884Z,15.10
2018-06-20T01:23:52.947Z,15.08
2018-06-20T01:25:01.010Z,15.11
2018-06-20T01:26:09.062Z,15.08
2018-06-20T01:27:17.160Z,15.07
2018-06-20T01:28:25.221Z,15.11
2018-06-20T01:29:33.258Z,15.12
2018-06-20T01:30:41.352Z,15.10
2018-06-20T01:31:49.402Z,15.15
2018-06-20T01:32:57.466Z,14.99
2018-06-20T01:34:05.532Z,15.10
2018-06-20T01:35:13.618Z,15.10
2018-06-20T01:36:21.670Z,15.07
2018-06-20T01:37:29.753Z,14.99
2018-06-20T01:38:37.797Z,15.02
2018-06-20T01:39:45.877Z,15.10
2018-06-20T01:40:53.986Z,14.97
2018-06-20T01:42:02.018Z,15.11
2018-06-20T01:43:10.072Z,15.14
2018-06-20T01:44:18.138Z,15.11
2018-06-20T01:45:26.179Z,15.11
2018-06-20T01:46:34.282Z,15.15
2018-06-20T01:47:42.344Z,15.10
2018-06-20T01:48:50.436Z,15.04
2018-06-20T01:49:58.475Z,15.10
2018-06-20T01:51:06.520Z,14.99
2018-06-20T01:52:14.607Z,15.10
2018-06-20T01:53:22.731Z,15.02
2018-06-20T01:54:30.733Z,14.99
2018-06-20T01:55:38.807Z,15.02
2018-06-20T01:56:46.863Z,15.02
2018-06-20T01:57:54.935Z,15.14
2018-06-20T01:59:03.019Z,15.12
2018-06-20T02:00:11.075Z,15.10
2018-06-20T02:01:19.147Z,15.15
2018-06-20T02:02:27.212Z,15.17
2018-06-20T02:03:35.259Z,15.15
2018-06-20T02:04:43.340Z,15.19
2018-06-20T02:05:51.420Z,15.15
2018-06-20T02:06:59.476Z,15.12
2018-06-20T02:08:07.557Z,15.12
2018-06-20T02:09:15.606Z,15.17
2018-06-20T02:10:23.670Z,15.25
2018-06-20T02:11:31.741Z,15.32
2018-06-20T02:12:39.788Z,15.23
2018-06-20T02:13:47.867Z,15.26
2018-06-20T02:14:55.936Z,15.18
2018-06-20T02:16:04.003Z,15.23
2018-06-20T02:17:12.067Z,15.22
2018-06-20T02:18:20.151Z,15.07
2018-06-20T02:19:28.198Z,15.11
2018-06-20T02:20:36.247Z,15.11
2018-06-20T02:21:44.318Z,15.02
2018-06-20T02:22:52.407Z,14.97
2018-06-20T02:24:00.510Z,15.02
2018-06-20T02:25:08.540Z,15.11
2018-06-20T02:26:16.785Z,14.97
2018-06-20T02:27:24.864Z,15.08
2018-06-20T02:28:32.923Z,14.99
2018-06-20T02:29:40.976Z,15.00
2018-06-20T02:30:49.055Z,14.99
2018-06-20T02:31:57.108Z,14.99
2018-06-20T02:33:05.199Z,14.96
2018-06-20T02:34:13.249Z,14.93
2018-06-20T02:35:21.322Z,14.93
2018-06-20T02:36:29.395Z,14.94
2018-06-20T02:37:37.453Z,14.99
2018-06-20T02:38:45.518Z,14.85
2018-06-20T02:39:53.587Z,14.94
2018-06-20T02:41:01.662Z,14.96
2018-06-20T02:42:09.741Z,14.86
2018-06-20T02:43:17.782Z,14.87
2018-06-20T02:44:25.851Z,14.86
2018-06-20T02:45:33.932Z,14.87
2018-06-20T02:46:41.969Z,14.85
2018-06-20T02:47:50.057Z,14.82
2018-06-20T02:48:58.111Z,14.79
2018-06-20T02:50:06.179Z,14.74
2018-06-20T02:51:14.239Z,14.78
2018-06-20T02:52:22.314Z,14.82
2018-06-20T02:53:30.402Z,14.73
2018-06-20T02:54:38.472Z,14.70
2018-06-20T02:55:46.478Z,14.66
2018-06-20T02:56:54.555Z,14.68
2018-06-20T02:58:02.616Z,14.70
2018-06-20T02:59:10.707Z,14.67
2018-06-20T03:00:18.771Z,14.68
2018-06-20T03:01:26.815Z,14.74
2018-06-20T03:02:34.916Z,14.67
2018-06-20T03:03:42.975Z,14.66
2018-06-20T03:04:51.026Z,14.63
2018-06-20T03:05:59.117Z,14.63
2018-06-20T03:07:07.172Z,14.68
2018-06-20T03:08:15.243Z,14.70
2018-06-20T03:09:23.352Z,14.63
2018-06-20T03:10:31.363Z,14.63
2018-06-20T03:11:39.451Z,14.58
2018-06-20T03:12:47.500Z,14.63
2018-06-20T03:13:55.561Z,14.59
2018-06-20T03:15:03.622Z,14.62
2018-06-20T03:16:11.693Z,14.56
2018-06-20T03:17:19.781Z,14.63
2018-06-20T03:18:27.843Z,14.63
2018-06-20T03:19:35.906Z,14.70
2018-06-20T03:20:43.988Z,14.73
2018-06-20T03:21:52.026Z,14.68
2018-06-20T03:23:00.120Z,14.68
2018-06-20T03:24:08.166Z,14.67
2018-06-20T03:25:16.226Z,14.59
2018-06-20T03:26:24.295Z,14.70
2018-06-20T03:27:32.384Z,14.62
2018-06-20T03:28:40.438Z,14.70
2018-06-20T03:29:48.481Z,14.67
2018-06-20T03:30:56.557Z,14.70
2018-06-20T03:32:04.608Z,14.63
2018-06-20T03:33:12.688Z,14.67
2018-06-20T03:34:20.753Z,14.59
2018-06-20T03:35:28.827Z,14.66
2018-06-20T03:36:36.870Z,14.68
2018-06-20T03:37:45.197Z,14.81
2018-06-20T03:38:53.018Z,14.81
2018-06-20T03:40:01.103Z,14.73
2018-06-20T03:41:09.155Z,14.81
2018-06-20T03:42:17.258Z,14.86
2018-06-20T03:43:25.277Z,14.71
2018-06-20T03:44:33.340Z,14.85
2018-06-20T03:45:41.405Z,14.71
2018-06-20T03:46:49.533Z,14.77
2018-06-20T03:47:57.570Z,14.63
2018-06-20T03:49:05.628Z,14.78
2018-06-20T03:50:13.717Z,14.87
2018-06-20T03:51:21.746Z,14.78
2018-06-20T03:52:29.820Z,14.82
2018-06-20T03:53:37.889Z,14.82
2018-06-20T03:54:45.942Z,14.85
2018-06-20T03:55:54.037Z,14.74
2018-06-20T03:57:02.085Z,14.73
2018-06-20T03:58:10.176Z,14.78
2018-06-20T03:59:18.237Z,14.70
2018-06-20T04:00:26.276Z,14.81
2018-06-20T04:01:34.329Z,14.78
2018-06-20T04:02:42.424Z,14.73
2018-06-20T04:03:50.468Z,14.86
2018-06-20T04:04:58.545Z,14.87
2018-06-20T04:06:06.584Z,14.87
2018-06-20T04:07:14.698Z,14.94
2018-06-20T04:08:22.726Z,14.85
2018-06-20T04:09:30.823Z,14.92
2018-06-20T04:10:38.864Z,14.94
2018-06-20T04:11:46.972Z,14.97
2018-06-20T04:12:55.000Z,15.05
2018-06-20T04:14:03.080Z,15.00
2018-06-20T04:15:11.171Z,15.00
2018-06-20T04:16:19.252Z,14.96
2018-06-20T04:17:27.299Z,15.02
2018-06-20T04:18:35.353Z,14.94
2018-06-20T04:19:43.437Z,14.96
2018-06-20T04:20:51.498Z,15.10
2018-06-20T04:21:59.558Z,15.12
2018-06-20T04:23:07.635Z,15.14
2018-06-20T04:24:15.685Z,15.07
2018-06-20T04:25:23.754Z,15.00
2018-06-20T04:26:31.849Z,15.07
2018-06-20T04:27:41.342Z,15.17
2018-06-20T04:28:47.976Z,15.10
2018-06-20T04:29:56.025Z,15.08
2018-06-20T04:31:04.113Z,15.12
2018-06-20T04:32:12.161Z,15.10
2018-06-20T04:33:20.254Z,15.15
2018-06-20T04:34:28.294Z,15.14
2018-06-20T04:35:36.358Z,15.12
2018-06-20T04:36:44.445Z,15.26
2018-06-20T04:37:52.830Z,15.29
2018-06-20T04:39:00.575Z,15.22
2018-06-20T04:40:08.656Z,15.19
2018-06-20T04:41:16.694Z,15.25
2018-06-20T04:42:24.758Z,15.30
2018-06-20T04:43:32.835Z,15.27
2018-06-20T04:44:41.034Z,15.35
2018-06-20T04:45:48.968Z,15.35
2018-06-20T04:46:57.040Z,15.37
2018-06-20T04:48:05.091Z,15.45
2018-06-20T04:49:13.196Z,15.48
2018-06-20T04:50:21.527Z,15.44
2018-06-20T04:51:29.304Z,15.48
2018-06-20T04:52:37.379Z,15.52
2018-06-20T04:53:45.467Z,15.52
2018-06-20T04:54:53.480Z,15.55
2018-06-20T04:56:01.587Z,15.59
2018-06-20T04:57:09.650Z,15.60
2018-06-20T04:58:17.795Z,15.75
2018-06-20T04:59:25.810Z,15.70
2018-06-20T05:00:33.837Z,15.81
2018-06-20T05:01:41.915Z,15.75
2018-06-20T05:02:49.991Z,15.85
2018-06-20T05:03:58.054Z,15.94
2018-06-20T05:05:06.093Z,15.91
2018-06-20T05:06:14.182Z,15.94
2018-06-20T05:07:22.231Z,16.18
2018-06-20T05:08:30.330Z,16.55
2018-06-20T05:09:38.368Z,16.97
2018-06-20T05:10:46.426Z,17.24
2018-06-20T05:11:54.517Z,17.19
2018-06-20T05:13:03.069Z,17.24
2018-06-20T05:14:10.676Z,17.23
2018-06-20T05:15:18.723Z,17.28
2018-06-20T05:16:26.901Z,17.27
2018-06-20T05:17:34.922Z,17.32
2018-06-20T05:18:42.919Z,17.42
2018-06-20T05:19:50.998Z,17.38
2018-06-20T05:20:59.058Z,17.38
2018-06-20T05:22:07.131Z,17.34
2018-06-20T05:23:15.191Z,17.37
2018-06-20T05:24:23.257Z,17.28
2018-06-20T05:25:31.337Z,17.32
2018-06-20T05:27:53.923Z,17.28
2018-06-20T05:29:01.994Z,17.32
2018-06-20T05:31:32.035Z,17.34
2018-06-20T05:32:37.104Z,17.31
2018-06-20T05:33:45.151Z,17.37
2018-06-20T05:34:53.233Z,17.38
2018-06-20T05:36:01.334Z,17.46
2018-06-20T05:37:09.351Z,17.41
2018-06-20T05:38:17.425Z,17.42
2018-06-20T05:39:25.506Z,17.47
2018-06-20T05:40:33.543Z,17.54
2018-06-20T05:41:41.684Z,17.53
2018-06-20T05:42:49.687Z,17.73
2018-06-20T05:43:57.754Z,17.69
2018-06-20T05:45:05.815Z,17.79
2018-06-20T05:46:13.889Z,17.76
2018-06-20T05:47:21.956Z,17.88
2018-06-20T05:48:40.894Z,17.90
2018-06-20T05:49:38.082Z,17.97
2018-06-20T05:50:46.157Z,17.95
2018-06-20T05:51:54.264Z,18.08
2018-06-20T05:53:02.301Z,18.02
2018-06-20T05:54:10.366Z,18.06
2018-06-20T05:55:18.429Z,18.18
2018-06-20T05:56:26.584Z,18.27
2018-06-20T05:57:34.574Z,18.19
2018-06-20T05:58:42.624Z,18.30
2018-06-20T05:59:50.721Z,18.33
2018-06-20T06:00:59.963Z,18.33
2018-06-20T06:02:08.060Z,18.28
2018-06-20T06:03:16.090Z,18.46
2018-06-20T06:04:24.166Z,18.48
2018-06-20T06:05:32.251Z,18.46
2018-06-20T06:06:40.322Z,18.60
2018-06-20T06:07:48.401Z,18.58
2018-06-20T06:08:56.440Z,18.61
2018-06-20T06:10:05.623Z,18.68
2018-06-20T06:11:12.638Z,18.73
2018-06-20T06:12:20.663Z,18.74
2018-06-20T06:13:28.731Z,18.76
2018-06-20T06:14:38.203Z,18.79
2018-06-20T06:15:44.877Z,18.96
2018-06-20T06:16:52.982Z,18.97
2018-06-20T06:18:01.002Z,18.96
2018-06-20T06:19:13.091Z,18.94
2018-06-20T06:20:20.626Z,18.91
2018-06-20T06:21:28.630Z,19.05
2018-06-20T06:22:36.674Z,18.97
2018-06-20T06:23:44.777Z,19.04
2018-06-20T06:24:52.857Z,18.97
2018-06-20T06:26:00.902Z,19.08
2018-06-20T06:27:08.986Z,19.15
2018-06-20T06:28:17.031Z,19.12
2018-06-20T06:29:25.120Z,19.12
2018-06-20T06:30:33.229Z,19.12
2018-06-20T06:32:57.859Z,19.09
2018-06-20T06:34:05.865Z,19.09
2018-06-20T06:35:13.926Z,19.23
2018-06-20T06:36:22.006Z,19.17
2018-06-20T06:37:30.140Z,19.17
2018-06-20T06:38:38.134Z,19.23
2018-06-20T06:39:48.810Z,19.24
2018-06-20T06:40:56.859Z,19.29
2018-06-20T06:42:05.045Z,19.29
2018-06-20T06:43:15.240Z,19.29
2018-06-20T06:44:23.290Z,19.29
2018-06-20T06:45:31.361Z,19.26
2018-06-20T06:46:39.442Z,19.45
2018-06-20T06:47:47.514Z,19.38
2018-06-20T06:48:55.610Z,19.55
2018-06-20T06:50:09.103Z,19.56
2018-06-20T06:51:16.959Z,19.56
2018-06-20T06:52:25.030Z,19.56
2018-06-20T06:53:33.098Z,19.62
2018-06-20T06:54:41.379Z,19.72
2018-06-20T06:55:50.238Z,19.66
2018-06-20T06:56:58.304Z,19.71
2018-06-20T06:58:06.349Z,19.71
2018-06-20T06:59:14.436Z,19.79
2018-06-20T07:00:26.656Z,19.85
2018-06-20T07:01:31.559Z,19.90
2018-06-20T07:02:39.657Z,20.12
2018-06-20T07:03:47.753Z,20.32
2018-06-20T07:05:00.849Z,20.49
2018-06-20T07:06:04.843Z,20.74
2018-06-20T07:07:16.985Z,21.05
2018-06-20T07:08:21.987Z,21.35
2018-06-20T07:09:30.077Z,21.85
2018-06-20T07:10:38.138Z,22.38
2018-06-20T07:11:46.235Z,22.95
2018-06-20T07:12:55.480Z,23.55
2018-06-20T07:14:03.571Z,24.09
2018-06-20T07:15:11.647Z,24.62
2018-06-20T07:16:19.699Z,24.74
2018-06-20T07:17:27.815Z,24.93
2018-06-20T07:18:37.688Z,25.14
2018-06-20T07:19:45.748Z,25.12
2018-06-20T07:20:53.817Z,25.37
2018-06-20T07:22:01.883Z,25.63
2018-06-20T07:23:09.977Z,25.66
2018-06-20T07:24:18.167Z,25.59
2018-06-20T07:25:28.396Z,25.36
2018-06-20T07:26:36.380Z,25.43
2018-06-20T07:27:44.495Z,25.61
2018-06-20T07:28:52.567Z,25.98
2018-06-20T07:30:00.654Z,26.15
2018-06-20T07:31:08.712Z,26.26
2018-06-20T07:32:16.774Z,26.51
2018-06-20T07:33:25.511Z,26.60
2018-06-20T07:34:33.643Z,26.89
2018-06-20T07:35:41.901Z,27.33
2018-06-20T07:36:49.743Z,27.85
2018-06-20T07:37:57.796Z,28.23
2018-06-20T07:39:08.499Z,28.77
2018-06-20T07:40:16.566Z,29.18
2018-06-20T07:41:24.668Z,29.12
2018-06-20T07:42:32.722Z,29.44
2018-06-20T07:43:40.818Z,29.59
2018-06-20T07:44:48.896Z,29.77
2018-06-20T07:45:56.999Z,29.61
2018-06-20T07:47:05.064Z,29.65
2018-06-20T07:48:13.119Z,29.87
2018-06-20T07:49:21.216Z,30.05
2018-06-20T07:50:29.302Z,30.23
2018-06-20T07:51:37.375Z,30.33
2018-06-20T07:52:45.458Z,30.58
2018-06-20T07:53:53.550Z,30.91
2018-06-20T07:55:01.673Z,31.39
2018-06-20T07:56:09.717Z,31.51
2018-06-20T07:57:17.813Z,31.73
2018-06-20T07:58:25.897Z,31.73
2018-06-20T07:59:33.957Z,31.72
2018-06-20T08:00:42.095Z,31.55
2018-06-20T08:01:50.127Z,31.70
2018-06-20T08:02:58.238Z,31.52
2018-06-20T08:04:06.279Z,31.42
2018-06-20T08:05:14.373Z,31.52
2018-06-20T08:06:22.481Z,31.74
2018-06-20T08:07:30.547Z,32.07
2018-06-20T08:08:38.635Z,31.97
2018-06-20T08:09:46.691Z,31.72
2018-06-20T08:10:54.838Z,31.77
2018-06-20T08:12:02.879Z,31.78
2018-06-20T08:13:10.978Z,31.47
2018-06-20T08:14:19.057Z,31.55
2018-06-20T08:15:27.131Z,31.57
2018-06-20T08:16:35.233Z,31.74
2018-06-20T08:17:43.338Z,31.85
2018-06-20T08:18:51.456Z,31.97
2018-06-20T08:19:59.486Z,31.93
2018-06-20T08:21:07.568Z,31.93
2018-06-20T08:22:15.652Z,32.34
2018-06-20T08:23:23.736Z,32.46
2018-06-20T08:24:31.816Z,32.68
2018-06-20T08:25:39.914Z,32.90
2018-06-20T08:26:48.021Z,33.08
2018-06-20T08:27:56.064Z,32.78
2018-06-20T08:29:04.152Z,32.90
2018-06-20T08:30:12.259Z,32.24
2018-06-20T08:31:20.378Z,32.01
2018-06-20T08:32:28.426Z,31.82
2018-06-20T08:33:36.520Z,31.92
2018-06-20T08:34:44.601Z,31.97
2018-06-20T08:35:52.670Z,31.97
2018-06-20T08:37:00.747Z,32.22
2018-06-20T08:38:08.867Z,32.37
2018-06-20T08:39:16.934Z,32.42
2018-06-20T08:40:25.040Z,32.35
2018-06-20T08:41:33.116Z,32.46
2018-06-20T08:42:41.180Z,32.63
2018-06-20T08:43:49.291Z,32.72
2018-06-20T08:44:57.362Z,32.37
2018-06-20T08:46:05.451Z,32.41
2018-06-20T08:47:13.548Z,32.46
2018-06-20T08:48:21.641Z,32.53
2018-06-20T08:49:29.706Z,32.42
2018-06-20T08:50:37.820Z,32.72
2018-06-20T08:51:45.898Z,32.85
2018-06-20T08:52:54.003Z,32.90
2018-06-20T08:54:02.081Z,32.45
2018-06-20T08:55:10.144Z,31.85
2018-06-20T08:56:18.241Z,31.64
2018-06-20T08:57:26.299Z,31.62
2018-06-20T08:58:34.403Z,31.59
2018-06-20T08:59:42.505Z,31.67
2018-06-20T09:00:50.579Z,31.60
2018-06-20T09:01:58.649Z,31.79
2018-06-20T09:03:06.732Z,31.70
2018-06-20T09:04:14.827Z,31.92
2018-06-20T09:05:22.928Z,31.92
2018-06-20T09:06:31.013Z,32.11
2018-06-20T09:07:39.129Z,31.64
2018-06-20T09:08:47.264Z,31.73
2018-06-20T09:09:55.271Z,31.69
2018-06-20T09:11:03.359Z,31.59
2018-06-20T09:12:11.447Z,31.67
2018-06-20T09:13:19.525Z,31.70
2018-06-20T09:14:27.667Z,31.54
2018-06-20T09:15:35.702Z,31.74
2018-06-20T09:16:43.781Z,31.86
2018-06-20T09:17:51.857Z,31.82
2018-06-20T09:18:59.971Z,31.97
2018-06-20T09:20:08.031Z,31.67
2018-06-20T09:21:16.153Z,31.85
2018-06-20T09:22:24.251Z,32.00
2018-06-20T09:23:32.321Z,32.01
2018-06-20T09:24:40.394Z,31.86
2018-06-20T09:25:48.474Z,31.52
2018-06-20T09:26:56.533Z,31.25
2018-06-20T09:28:04.654Z,30.91
2018-06-20T09:29:12.745Z,30.21
2018-06-20T09:30:20.823Z,29.83
2018-06-20T09:31:28.918Z,29.20
2018-06-20T09:32:36.978Z,28.97
2018-06-20T09:33:45.057Z,28.97
2018-06-20T09:34:53.157Z,28.72
2018-06-20T09:36:01.279Z,28.67
2018-06-20T09:37:09.331Z,28.52
2018-06-20T09:38:17.421Z,28.35
2018-06-20T09:39:25.505Z,28.27
2018-06-20T09:40:33.586Z,28.25
2018-06-20T09:41:41.645Z,27.95
2018-06-20T09:42:49.763Z,27.86
2018-06-20T09:43:57.825Z,27.76
2018-06-20T09:45:05.875Z,27.79
2018-06-20T09:46:13.954Z,27.60
2018-06-20T09:47:22.097Z,27.57
2018-06-20T09:48:30.122Z,27.55
2018-06-20T09:49:38.194Z,27.61
2018-06-20T09:50:46.277Z,27.53
2018-06-20T09:51:54.361Z,27.58
2018-06-20T09:53:02.447Z,27.53
2018-06-20T09:54:10.514Z,27.38
2018-06-20T09:55:18.589Z,27.30
2018-06-20T09:56:26.648Z,27.37
2018-06-20T09:57:34.753Z,27.35
2018-06-20T09:58:42.846Z,27.29
2018-06-20T09:59:50.912Z,27.13
2018-06-20T10:00:58.993Z,26.74
2018-06-20T10:02:07.055Z,26.85
2018-06-20T10:03:15.141Z,26.68
2018-06-20T10:04:23.222Z,26.74
2018-06-20T10:05:31.307Z,26.88
2018-06-20T10:06:39.414Z,26.86
2018-06-20T10:07:47.444Z,27.03
2018-06-20T10:08:55.541Z,27.05
2018-06-20T10:10:03.577Z,27.07
2018-06-20T10:11:11.717Z,27.18
2018-06-20T10:12:19.734Z,27.18
2018-06-20T10:13:27.852Z,27.13
2018-06-20T10:14:35.935Z,27.19
2018-06-20T10:15:43.971Z,27.26
2018-06-20T10:16:52.044Z,27.30
2018-06-20T10:18:00.107Z,27.37
2018-06-20T10:19:08.204Z,27.45
2018-06-20T10:20:16.284Z,27.48
2018-06-20T10:21:24.407Z,27.52
2018-06-20T10:22:32.426Z,27.58
2018-06-20T10:23:40.512Z,27.58
2018-06-20T10:24:48.621Z,27.52
2018-06-20T10:25:56.621Z,27.45
2018-06-20T10:27:04.711Z,27.35
2018-06-20T10:28:12.809Z,27.40
2018-06-20T10:29:20.866Z,27.41
2018-06-20T10:30:28.964Z,27.47
2018-06-20T10:31:37.010Z,27.44
2018-06-20T10:32:45.093Z,27.34
2018-06-20T10:33:53.170Z,27.47
2018-06-20T10:35:01.261Z,27.50
2018-06-20T10:36:09.358Z,27.47
2018-06-20T10:37:17.402Z,27.04
2018-06-20T10:38:25.474Z,26.96
2018-06-20T10:39:33.541Z,26.89
2018-06-20T10:40:41.634Z,26.89
2018-06-20T10:41:49.688Z,26.85
2018-06-20T10:42:57.808Z,26.88
2018-06-20T10:44:05.868Z,27.01
2018-06-20T10:45:13.932Z,27.03
2018-06-20T10:46:22.215Z,27.20
2018-06-20T10:47:30.118Z,27.30
2018-06-20T10:48:38.157Z,27.30
2018-06-20T10:49:46.210Z,27.44
2018-06-20T10:50:54.332Z,27.58
2018-06-20T10:52:02.405Z,27.48
2018-06-20T10:53:10.463Z,27.47
2018-06-20T10:54:18.610Z,27.48
2018-06-20T10:55:26.586Z,27.57
2018-06-20T10:56:34.673Z,27.60
2018-06-20T10:57:42.763Z,27.61
2018-06-20T10:58:50.822Z,27.81
2018-06-20T10:59:58.923Z,27.82
2018-06-20T11:01:06.952Z,27.82
2018-06-20T11:02:15.067Z,27.75
2018-06-20T11:03:23.111Z,27.44
2018-06-20T11:04:31.203Z,27.28
2018-06-20T11:05:39.273Z,27.25
2018-06-20T11:06:47.354Z,27.28
2018-06-20T11:07:55.433Z,27.22
2018-06-20T11:09:03.509Z,27.35
2018-06-20T11:10:11.576Z,27.40
2018-06-20T11:11:19.660Z,27.45
2018-06-20T11:12:27.747Z,27.67
2018-06-20T11:13:35.793Z,27.82
2018-06-20T11:14:43.914Z,27.91
2018-06-20T11:15:51.963Z,28.04
2018-06-20T11:17:00.018Z,28.01
2018-06-20T11:18:08.104Z,28.10
2018-06-20T11:19:16.182Z,28.12
2018-06-20T11:20:24.267Z,28.13
2018-06-20T11:21:32.306Z,28.12
2018-06-20T11:22:40.426Z,28.13
2018-06-20T11:23:48.477Z,28.09
2018-06-20T11:24:56.516Z,28.16
2018-06-20T11:26:04.616Z,28.08
2018-06-20T11:27:12.712Z,28.12
2018-06-20T11:28:20.777Z,28.19
2018-06-20T11:29:28.833Z,28.18
2018-06-20T11:30:36.898Z,28.15
2018-06-20T11:31:45.036Z,28.25
2018-06-20T11:32:53.040Z,28.25
2018-06-20T11:34:01.148Z,27.95
2018-06-20T11:35:09.233Z,27.95
2018-06-20T11:36:17.310Z,28.04
2018-06-20T11:37:25.363Z,27.94
2018-06-20T11:38:33.417Z,28.08
2018-06-20T11:39:41.515Z,28.20
2018-06-20T11:40:49.585Z,28.23
2018-06-20T11:41:57.694Z,28.12
2018-06-20T11:43:05.753Z,28.31
2018-06-20T11:44:13.815Z,28.15
2018-06-20T11:45:21.906Z,28.27
2018-06-20T11:46:29.973Z,28.27
2018-06-20T11:47:38.047Z,28.37
2018-06-20T11:48:46.101Z,28.38
2018-06-20T11:49:54.234Z,28.45
2018-06-20T11:51:02.253Z,28.38
2018-06-20T11:52:10.349Z,28.46
2018-06-20T11:53:18.435Z,28.45
2018-06-20T11:54:26.460Z,28.47
2018-06-20T11:55:34.573Z,28.40
2018-06-20T11:56:42.634Z,28.28
2018-06-20T11:57:50.705Z,28.22
2018-06-20T11:58:58.779Z,28.27
2018-06-20T12:00:06.881Z,28.25
2018-06-20T12:01:14.944Z,28.25
2018-06-20T12:02:23.006Z,28.28
2018-06-20T12:03:31.086Z,28.35
2018-06-20T12:04:39.201Z,28.25
2018-06-20T12:05:47.252Z,28.18
2018-06-20T12:06:55.335Z,28.15
2018-06-20T12:08:03.370Z,28.19
2018-06-20T12:09:11.450Z,28.28
2018-06-20T12:10:19.542Z,28.23
2018-06-20T12:11:27.627Z,28.28
2018-06-20T12:12:35.677Z,28.30
2018-06-20T12:13:43.778Z,28.25
2018-06-20T12:14:51.834Z,28.28
2018-06-20T12:15:59.916Z,28.25
2018-06-20T12:17:07.992Z,28.34
2018-06-20T12:18:16.074Z,28.28
2018-06-20T12:19:24.159Z,28.22
2018-06-20T12:20:32.206Z,28.16
2018-06-20T12:21:40.279Z,28.16
2018-06-20T12:22:48.359Z,28.12
2018-06-20T12:23:56.408Z,28.15
2018-06-20T12:25:04.517Z,28.18
2018-06-20T12:26:12.569Z,28.19
2018-06-20T12:27:20.646Z,28.20
2018-06-20T12:28:28.736Z,28.12
2018-06-20T12:29:36.780Z,28.27
2018-06-20T12:30:44.888Z,28.33
2018-06-20T12:31:52.952Z,28.37
2018-06-20T12:33:01.027Z,28.33
2018-06-20T12:34:09.117Z,28.30
2018-06-20T12:35:17.159Z,28.23
2018-06-20T12:36:25.267Z,28.33
2018-06-20T12:37:33.317Z,28.30
2018-06-20T12:38:41.403Z,28.28
2018-06-20T12:39:49.475Z,28.35
2018-06-20T12:40:57.617Z,28.40
2018-06-20T12:42:05.648Z,28.41
2018-06-20T12:43:13.710Z,28.34
2018-06-20T12:44:21.767Z,28.30
2018-06-20T12:45:29.844Z,28.37
2018-06-20T12:46:37.928Z,28.31
2018-06-20T12:47:45.993Z,28.31
2018-06-20T12:48:54.061Z,28.37
2018-06-20T12:50:02.141Z,28.46
2018-06-20T12:51:10.237Z,28.45
2018-06-20T12:52:18.297Z,28.43
2018-06-20T12:53:26.348Z,28.45
2018-06-20T12:54:34.459Z,28.41
2018-06-20T12:55:42.539Z,28.50
2018-06-20T12:56:50.603Z,28.53
2018-06-20T12:57:58.668Z,28.45
2018-06-20T12:59:06.755Z,28.50
2018-06-20T13:00:14.829Z,28.50
2018-06-20T13:01:22.902Z,28.56
2018-06-20T13:02:30.959Z,28.53
2018-06-20T13:03:39.036Z,28.59
2018-06-20T13:04:47.100Z,28.62
2018-06-20T13:05:55.202Z,28.56
2018-06-20T13:07:03.282Z,28.55
2018-06-20T13:08:11.344Z,28.68
2018-06-20T13:09:19.433Z,28.70
2018-06-20T13:10:27.518Z,28.56
2018-06-20T13:11:35.572Z,28.60
2018-06-20T13:12:43.648Z,28.65
2018-06-20T13:13:51.713Z,28.60
2018-06-20T13:14:59.785Z,28.62
2018-06-20T13:16:07.860Z,28.60
2018-06-20T13:17:15.922Z,28.67
2018-06-20T13:18:24.037Z,28.57
2018-06-20T13:19:32.081Z,28.52
2018-06-20T13:20:40.159Z,28.47
2018-06-20T13:21:48.239Z,28.46
2018-06-20T13:22:56.291Z,28.40
2018-06-20T13:24:04.399Z,28.40
2018-06-20T13:25:12.470Z,28.41
2018-06-20T13:26:20.565Z,28.38
2018-06-20T13:27:28.631Z,28.40
2018-06-20T13:28:36.665Z,28.34
2018-06-20T13:29:44.750Z,28.40
2018-06-20T13:30:52.856Z,28.46
2018-06-20T13:32:00.917Z,28.43
2018-06-20T13:33:08.969Z,28.37
2018-06-20T13:34:17.057Z,28.15
2018-06-20T13:35:25.137Z,28.19
2018-06-20T13:36:33.221Z,28.20
2018-06-20T13:37:41.270Z,28.27
2018-06-20T13:38:49.356Z,28.28
2018-06-20T13:39:57.416Z,28.27
2018-06-20T13:41:05.510Z,28.19
2018-06-20T13:42:13.639Z,28.31
2018-06-20T13:43:21.646Z,28.23
2018-06-20T13:44:29.745Z,28.31
2018-06-20T13:45:37.835Z,28.40
2018-06-20T13:46:45.894Z,28.33
2018-06-20T13:47:53.964Z,28.35
2018-06-20T13:49:02.023Z,28.37
2018-06-20T13:50:10.083Z,28.23
2018-06-20T13:51:18.162Z,28.27
2018-06-20T13:52:26.243Z,28.16
2018-06-20T13:53:34.338Z,28.15
2018-06-20T13:54:42.413Z,28.15
2018-06-20T13:55:50.468Z,28.18
2018-06-20T13:56:58.584Z,28.15
2018-06-20T13:58:06.602Z,28.19
2018-06-20T13:59:14.720Z,28.20
2018-06-20T14:00:22.776Z,28.25
2018-06-20T14:01:30.847Z,28.18
2018-06-20T14:02:38.931Z,28.20
2018-06-20T14:03:46.969Z,28.19
2018-06-20T14:04:55.064Z,28.23
2018-06-20T14:06:03.147Z,28.20
2018-06-20T14:07:11.209Z,28.25
2018-06-20T14:08:19.317Z,28.27
2018-06-20T14:09:27.374Z,28.31
2018-06-20T14:10:35.430Z,28.12
2018-06-20T14:11:43.516Z,28.22
2018-06-20T14:12:51.586Z,28.13
2018-06-20T14:13:59.681Z,28.15
2018-06-20T14:15:07.742Z,28.18
2018-06-20T14:16:15.824Z,28.12
2018-06-20T14:17:23.888Z,28.18
2018-06-20T14:18:31.962Z,28.15
2018-06-20T14:19:40.035Z,28.12
2018-06-20T14:20:48.100Z,28.19
2018-06-20T14:21:56.202Z,28.12
2018-06-20T14:23:04.249Z,28.16
2018-06-20T14:24:12.353Z,28.22
2018-06-20T14:25:20.408Z,28.20
2018-06-20T14:26:28.498Z,28.20
2018-06-20T14:27:36.523Z,28.15
2018-06-20T14:28:44.644Z,28.15
2018-06-20T14:29:52.785Z,28.20
2018-06-20T14:31:00.776Z,28.13
2018-06-20T14:32:08.865Z,28.20
2018-06-20T14:33:16.916Z,28.15
2018-06-20T14:34:25.004Z,28.18
2018-06-20T14:35:33.068Z,28.15
2018-06-20T14:36:41.163Z,28.15
2018-06-20T14:37:49.239Z,28.20
2018-06-20T14:38:57.398Z,28.16
2018-06-20T14:40:05.377Z,28.22
2018-06-20T14:41:13.433Z,28.15